Time;durP1;ratioP1;P1;durP2;ratioP2;P2;SDS_P1;SDS_P2;PMS_P1;PMS_P2;Temp;Humidity;BMP_temperature;BMP_pressure;BME280_temperature;BME280_humidity;BME280_pressure;Samples;Min_cycle;Max_cycle;Signal;HPM_P1;HPM_P2
2023/08/22 00:01:04;;;;;;;;;;;;;;;21.26;83.29;95511.84;5134781;27;1040;-57
2023/08/22 00:03:30;;;;;;;;;;;;;;;21.35;82.68;95507.00;5134349;27;969;-57
2023/08/22 00:05:56;;;;;;;;;;;;;;;21.34;83.03;95509.91;5134666;27;988;-56
2023/08/22 00:08:22;;;;;;;;;;;;;;;21.28;83.59;95518.97;5134506;28;973;-56
2023/08/22 00:10:48;;;;;;;;;;;;;;;21.06;84.64;95506.53;5134452;28;1040;-57
2023/08/22 00:13:14;;;;;;;;;;;;;;;20.91;85.63;95511.44;5134471;28;1125;-57
2023/08/22 00:15:40;;;;;;;;;;;;;;;20.95;85.31;95514.56;5134380;28;961;-57
2023/08/22 00:18:06;;;;;;;;;;;;;;;20.97;85.11;95504.31;5119601;28;2554;-57
2023/08/22 00:20:32;;;;;;;;;;;;;;;21.05;84.60;95512.19;5126476;28;1150;-56
2023/08/22 00:22:58;;;;;;;;;;;;;;;20.99;85.25;95511.19;5134454;28;1019;-57
2023/08/22 00:25:24;;;;;;;;;;;;;;;20.99;84.63;95505.75;5134114;28;1115;-57
2023/08/22 00:27:50;;;;;;;;;;;;;;;20.99;84.63;95508.47;5134139;28;1184;-57
2023/08/22 00:30:16;;;;;;;;;;;;;;;21.12;83.93;95509.47;5134015;28;1107;-57
2023/08/22 00:32:42;;;;;;;;;;;;;;;21.24;83.70;95513.13;5134130;28;1173;-56
2023/08/22 00:35:08;;;;;;;;;;;;;;;21.43;82.29;95509.44;5117625;27;991;-57
2023/08/22 00:37:34;;;;;;;;;;;;;;;21.04;84.22;95518.69;5138073;27;1985;-57
2023/08/22 00:40:00;;;;;;;;;;;;;;;20.72;86.03;95515.94;5138335;27;1024;-57
2023/08/22 00:42:26;;;;;;;;;;;;;;;20.64;86.75;95514.28;5138351;27;968;-56
2023/08/22 00:44:55;;;;;;;;;;;;;;;20.81;85.93;95517.34;5137906;27;1250;-57
2023/08/22 00:47:22;;;;;;;;;;;;;;;20.85;85.54;95513.16;5138287;27;1035;-57
2023/08/22 00:49:48;;;;;;;;;;;;;;;20.84;85.74;95513.34;5138268;27;987;-57
2023/08/22 00:52:14;;;;;;;;;;;;;;;20.64;86.71;95513.44;5137849;27;1044;-57
2023/08/22 00:54:41;;;;;;;;;;;;;;;20.71;86.92;95511.53;5137841;27;1032;-57
2023/08/22 00:57:07;;;;;;;;;;;;;;;20.71;86.06;95514.25;5137828;27;1906;-57
2023/08/22 00:59:34;;;;;;;;;;;;;;;20.42;87.70;95510.16;5137808;27;1041;-57
2023/08/22 01:02:00;;;;;;;;;;;;;;;20.32;88.35;95521.47;5137747;27;983;-57
2023/08/22 01:04:26;;;;;;;;;;;;;;;20.41;88.07;95520.19;5137887;27;1063;-57
2023/08/22 01:06:51;;;;;;;;;;;;;;;20.52;87.64;95506.97;5137968;27;960;-57
2023/08/22 01:09:32;;;;;;;;;;;;;;;20.57;87.15;95509.91;5132140;27;2959;-57
2023/08/22 01:12:05;;;;;;;;;;;;;;;20.54;87.83;95513.03;5117113;28;1094;-57
2023/08/22 01:14:36;;;;;;;;;;;;;;;20.50;87.78;95514.50;5098797;28;1040;-57
2023/08/22 01:17:03;;;;;;;;;;;;;;;20.34;88.40;95518.53;5117182;28;1964;-57
2023/08/22 01:19:29;;;;;;;;;;;;;;;20.53;87.51;95511.38;5120365;27;1138;-57
2023/08/22 01:21:55;;;;;;;;;;;;;;;20.55;87.55;95510.09;5136880;27;2814;-57
2023/08/22 01:24:22;;;;;;;;;;;;;;;20.42;88.50;95513.69;5134665;27;2892;-57
2023/08/22 01:26:48;;;;;;;;;;;;;;;20.28;89.05;95518.34;5137367;27;1032;-57
2023/08/22 01:29:43;;;;;;;;;;;;;;;20.26;88.94;95525.00;5135959;27;2693;-57
2023/08/22 01:32:19;;;;;;;;;;;;;;;20.46;88.04;95517.66;5119439;27;1984;-57
2023/08/22 01:34:46;;;;;;;;;;;;;;;20.54;87.51;95513.84;5137228;27;996;-57
2023/08/22 01:37:13;;;;;;;;;;;;;;;20.43;88.54;95525.38;5137000;27;1983;-57
2023/08/22 01:39:41;;;;;;;;;;;;;;;20.47;87.83;95513.06;5137028;27;968;-57
2023/08/22 01:42:07;;;;;;;;;;;;;;;20.52;88.16;95518.66;5137195;27;1044;-57
2023/08/22 01:44:33;;;;;;;;;;;;;;;20.47;88.06;95524.75;5136999;27;1288;-58
2023/08/22 01:46:59;;;;;;;;;;;;;;;20.48;88.66;95526.41;5136307;27;969;-56
2023/08/22 01:49:25;;;;;;;;;;;;;;;20.57;87.91;95520.75;5136891;27;1044;-57
2023/08/22 01:51:51;;;;;;;;;;;;;;;20.60;87.90;95520.34;5136868;27;1047;-57
2023/08/22 01:54:17;;;;;;;;;;;;;;;20.66;88.05;95519.50;5136903;27;1055;-57
2023/08/22 01:56:43;;;;;;;;;;;;;;;20.56;88.65;95510.94;5136650;27;1905;-57
2023/08/22 01:59:09;;;;;;;;;;;;;;;20.55;88.88;95510.09;5136699;27;1024;-57
2023/08/22 02:01:35;;;;;;;;;;;;;;;20.39;89.39;95502.44;5136916;27;976;-57
2023/08/22 02:04:03;;;;;;;;;;;;;;;20.22;90.87;95515.63;5136704;27;969;-57
2023/08/22 02:06:30;;;;;;;;;;;;;;;20.25;90.18;95504.34;5136487;27;958;-57
2023/08/22 02:08:56;;;;;;;;;;;;;;;20.48;89.07;95503.84;5136725;27;1022;-57
2023/08/22 02:11:22;;;;;;;;;;;;;;;20.46;89.97;95501.34;5136624;27;1075;-57
2023/08/22 02:13:48;;;;;;;;;;;;;;;20.65;88.90;95505.06;5136716;27;953;-57
2023/08/22 02:16:14;;;;;;;;;;;;;;;20.81;88.33;95509.19;5136531;27;1909;-57
2023/08/22 02:18:40;;;;;;;;;;;;;;;20.77;89.02;95516.13;5136365;27;969;-57
2023/08/22 02:21:06;;;;;;;;;;;;;;;20.61;89.04;95516.59;5136529;27;1165;-57
2023/08/22 02:23:32;;;;;;;;;;;;;;;20.78;87.90;95516.94;5136079;27;1033;-57
2023/08/22 02:25:58;;;;;;;;;;;;;;;20.91;87.46;95514.16;5136365;27;1036;-57
2023/08/22 02:28:24;;;;;;;;;;;;;;;20.89;87.92;95521.69;5136318;27;973;-57
2023/08/22 02:30:54;;;;;;;;;;;;;;;20.74;89.12;95521.97;5136002;27;1024;-58
2023/08/22 02:33:20;;;;;;;;;;;;;;;20.56;90.11;95519.91;5136271;27;985;-56
2023/08/22 02:35:46;;;;;;;;;;;;;;;20.65;89.77;95515.94;5135997;27;2136;-56
2023/08/22 02:38:12;;;;;;;;;;;;;;;20.75;89.37;95509.22;5135796;27;1451;-57
2023/08/22 02:40:38;;;;;;;;;;;;;;;20.70;89.74;95518.03;5136109;27;957;-56
2023/08/22 02:43:04;;;;;;;;;;;;;;;20.59;90.43;95514.06;5136065;27;999;-57
2023/08/22 02:45:30;;;;;;;;;;;;;;;20.45;91.00;95520.56;5135652;27;1211;-56
2023/08/22 02:47:56;;;;;;;;;;;;;;;20.52;90.65;95517.84;5135717;27;1024;-57
2023/08/22 02:50:23;;;;;;;;;;;;;;;20.55;91.04;95520.16;5135646;27;1042;-57
2023/08/22 02:52:52;;;;;;;;;;;;;;;20.48;91.96;95525.59;5135475;27;965;-56
2023/08/22 02:55:18;;;;;;;;;;;;;;;20.55;91.03;95520.97;5135748;27;984;-56
2023/08/22 02:57:44;;;;;;;;;;;;;;;20.61;91.07;95519.31;5135464;27;1918;-56
2023/08/22 03:00:11;;;;;;;;;;;;;;;20.66;90.82;95523.06;5135339;27;1106;-56
2023/08/22 03:02:37;;;;;;;;;;;;;;;20.68;90.78;95520.13;5135468;27;1035;-56
2023/08/22 03:05:07;;;;;;;;;;;;;;;20.65;90.69;95521.38;5129546;27;2433;-56
2023/08/22 03:07:33;;;;;;;;;;;;;;;20.73;90.22;95523.00;5114964;28;1055;-57
2023/08/22 03:09:59;;;;;;;;;;;;;;;20.65;90.54;95526.81;5116383;27;2960;-56
2023/08/22 03:12:25;;;;;;;;;;;;;;;20.57;91.52;95528.91;5114854;28;1039;-56
2023/08/22 03:14:51;;;;;;;;;;;;;;;20.47;91.13;95532.09;5114508;28;1024;-56
2023/08/22 03:17:17;;;;;;;;;;;;;;;20.45;91.82;95531.44;5114446;28;2002;-57
2023/08/22 03:19:43;;;;;;;;;;;;;;;20.44;91.91;95527.88;5120214;27;1154;-56
2023/08/22 03:22:09;;;;;;;;;;;;;;;20.46;91.51;95542.09;5135267;27;1043;-57
2023/08/22 03:24:35;;;;;;;;;;;;;;;20.41;91.68;95536.47;5135191;27;972;-57
2023/08/22 03:27:00;;;;;;;;;;;;;;;20.19;93.11;95535.06;5135211;27;983;-57
2023/08/22 03:29:27;;;;;;;;;;;;;;;20.11;93.73;95532.56;5134842;27;1035;-57
2023/08/22 03:31:53;;;;;;;;;;;;;;;20.13;93.31;95536.75;5134880;27;1057;-56
2023/08/22 03:34:19;;;;;;;;;;;;;;;20.11;93.22;95535.28;5134721;27;1039;-57
2023/08/22 03:36:45;;;;;;;;;;;;;;;20.03;93.19;95539.03;5134646;27;1938;-57
2023/08/22 03:39:11;;;;;;;;;;;;;;;20.10;92.59;95548.03;5134891;27;972;-57
2023/08/22 03:41:37;;;;;;;;;;;;;;;20.05;92.54;95543.25;5134784;27;969;-57
2023/08/22 03:44:03;;;;;;;;;;;;;;;19.97;92.86;95543.44;5134715;27;1135;-57
2023/08/22 03:46:29;;;;;;;;;;;;;;;19.83;93.07;95539.91;5126756;27;2461;-57
2023/08/22 03:48:55;;;;;;;;;;;;;;;19.91;92.79;95536.13;5114129;28;1048;-57
2023/08/22 03:51:21;;;;;;;;;;;;;;;19.99;92.06;95538.63;5113868;28;1095;-57
2023/08/22 03:53:48;;;;;;;;;;;;;;;19.99;91.81;95538.63;5113977;28;1036;-57
2023/08/22 03:56:14;;;;;;;;;;;;;;;19.99;91.49;95544.06;5114181;28;1991;-57
2023/08/22 03:58:40;;;;;;;;;;;;;;;19.90;92.25;95542.63;5114134;28;1041;-58
2023/08/22 04:01:06;;;;;;;;;;;;;;;19.83;92.43;95558.06;5114249;28;954;-57
2023/08/22 04:03:32;;;;;;;;;;;;;;;19.97;91.45;95548.84;5113938;28;1048;-57
2023/08/22 04:05:59;;;;;;;;;;;;;;;19.95;91.90;95550.94;5113793;28;1076;-57
2023/08/22 04:08:25;;;;;;;;;;;;;;;19.85;92.80;95545.94;5115409;28;2489;-57
2023/08/22 04:10:52;;;;;;;;;;;;;;;19.80;92.88;95550.34;5095528;28;970;-57
2023/08/22 04:13:18;;;;;;;;;;;;;;;19.93;92.63;95554.94;5113615;28;1048;-57
2023/08/22 04:15:44;;;;;;;;;;;;;;;19.98;91.80;95555.16;5113822;28;1012;-56
2023/08/22 04:18:10;;;;;;;;;;;;;;;19.96;91.79;95558.06;5113578;28;1906;-57
2023/08/22 04:20:36;;;;;;;;;;;;;;;20.01;92.61;95560.13;5126803;28;1218;-57
2023/08/22 04:23:03;;;;;;;;;;;;;;;19.79;92.97;95563.06;5134414;28;987;-57
2023/08/22 04:25:29;;;;;;;;;;;;;;;19.80;93.07;95555.75;5134293;28;1011;-57
2023/08/22 04:27:54;;;;;;;;;;;;;;;19.99;92.13;95568.47;5134141;28;1023;-57
2023/08/22 04:30:20;;;;;;;;;;;;;;;20.08;92.00;95563.69;5134054;28;1306;-57
2023/08/22 04:32:46;;;;;;;;;;;;;;;20.33;91.02;95563.84;5115963;28;1048;-56
2023/08/22 04:35:14;;;;;;;;;;;;;;;20.53;90.38;95566.53;5134038;28;1129;-57
2023/08/22 04:37:40;;;;;;;;;;;;;;;21.09;87.78;95575.94;5134001;28;1980;-57
2023/08/22 04:40:06;;;;;;;;;;;;;;;21.60;84.37;95568.78;5116197;28;1083;-57
2023/08/22 04:42:32;;;;;;;;;;;;;;;21.94;82.70;95562.03;5134232;28;1032;-57
2023/08/22 04:44:58;;;;;;;;;;;;;;;22.10;82.66;95567.97;5107555;28;2526;-57
2023/08/22 04:47:24;;;;;;;;;;;;;;;22.25;82.33;95563.03;5113370;28;1083;-58
2023/08/22 04:49:50;;;;;;;;;;;;;;;22.27;82.30;95566.41;5113691;28;1039;-56
2023/08/22 04:52:16;;;;;;;;;;;;;;;22.12;82.82;95565.84;5113635;28;987;-57
2023/08/22 04:54:42;;;;;;;;;;;;;;;21.94;83.64;95564.75;5113318;28;1313;-56
2023/08/22 04:57:08;;;;;;;;;;;;;;;21.65;86.86;95558.09;5113268;28;1887;-56
2023/08/22 04:59:34;;;;;;;;;;;;;;;21.52;88.65;95563.63;5113619;28;1064;-57
2023/08/22 05:02:00;;;;;;;;;;;;;;;21.64;88.08;95565.44;5113327;28;997;-57
2023/08/22 05:04:26;;;;;;;;;;;;;;;21.80;88.04;95568.66;5122209;28;2517;-57
2023/08/22 05:06:52;;;;;;;;;;;;;;;21.92;86.86;95566.88;5134076;28;961;-58
2023/08/22 05:09:18;;;;;;;;;;;;;;;22.08;86.23;95567.38;5133935;28;1049;-56
2023/08/22 05:11:44;;;;;;;;;;;;;;;22.25;85.06;95573.94;5133907;28;1043;-57
2023/08/22 05:14:11;;;;;;;;;;;;;;;22.17;86.01;95571.47;5133849;28;988;-57
2023/08/22 05:16:40;;;;;;;;;;;;;;;22.26;86.11;95572.06;5115579;28;1990;-57
2023/08/22 05:19:06;;;;;;;;;;;;;;;22.48;85.58;95573.31;5133614;28;1228;-57
2023/08/22 05:21:32;;;;;;;;;;;;;;;22.67;83.38;95571.44;5132670;27;2761;-57
2023/08/22 05:23:58;;;;;;;;;;;;;;;22.74;84.59;95572.16;5131015;27;2908;-57
2023/08/22 05:26:24;;;;;;;;;;;;;;;22.69;84.47;95577.50;5116953;28;1032;-57
2023/08/22 05:28:50;;;;;;;;;;;;;;;22.64;83.03;95571.06;5116804;28;973;-57
2023/08/22 05:31:23;;;;;;;;;;;;;;;22.65;79.92;95579.00;5116557;28;1048;-57
2023/08/22 05:33:49;;;;;;;;;;;;;;;22.84;81.09;95578.97;5116656;28;983;-57
2023/08/22 05:36:15;;;;;;;;;;;;;;;23.09;81.53;95573.50;5116409;28;1910;-57
2023/08/22 05:38:41;;;;;;;;;;;;;;;23.22;80.36;95583.38;5116560;28;1064;-57
2023/08/22 05:41:08;;;;;;;;;;;;;;;23.39;79.92;95581.66;5116478;28;1482;-57
2023/08/22 05:43:35;;;;;;;;;;;;;;;23.40;79.36;95583.34;5116331;28;1032;-57
2023/08/22 05:46:02;;;;;;;;;;;;;;;23.50;78.15;95582.78;5116295;28;1163;-57
2023/08/22 05:48:28;;;;;;;;;;;;;;;23.64;78.05;95587.00;5127598;27;2426;-57
2023/08/22 05:50:56;;;;;;;;;;;;;;;23.79;78.31;95581.13;5137076;27;1113;-57
2023/08/22 05:53:22;;;;;;;;;;;;;;;23.81;78.32;95575.41;5136747;27;1043;-57
2023/08/22 05:55:48;;;;;;;;;;;;;;;23.88;76.96;95584.34;5136743;27;1028;-57
2023/08/22 05:58:14;;;;;;;;;;;;;;;23.90;77.35;95579.47;5136723;27;1984;-57
2023/08/22 06:00:41;;;;;;;;;;;;;;;24.03;76.41;95575.72;5136727;27;1052;-57
2023/08/22 06:03:06;;;;;;;;;;;;;;;24.22;76.80;95574.53;5136649;27;1033;-58
2023/08/22 06:05:32;;;;;;;;;;;;;;;24.35;77.07;95582.50;5136720;27;1077;-58
2023/08/22 06:07:58;;;;;;;;;;;;;;;24.54;75.46;95585.97;5136818;27;965;-57
2023/08/22 06:10:24;;;;;;;;;;;;;;;24.50;76.14;95583.94;5136471;27;1024;-58
2023/08/22 06:12:50;;;;;;;;;;;;;;;24.70;75.18;95580.84;5136502;27;1032;-57
2023/08/22 06:15:16;;;;;;;;;;;;;;;24.86;74.16;95577.38;5136438;27;952;-58
2023/08/22 06:17:42;;;;;;;;;;;;;;;25.05;73.19;95583.53;5136236;27;1914;-57
2023/08/22 06:20:09;;;;;;;;;;;;;;;25.22;73.42;95577.31;5135737;27;2743;-57
2023/08/22 06:22:34;;;;;;;;;;;;;;;25.10;72.73;95578.19;5133432;27;2874;-57
2023/08/22 06:25:04;;;;;;;;;;;;;;;25.18;72.07;95573.41;5127421;27;2726;-57
2023/08/22 06:27:30;;;;;;;;;;;;;;;25.17;72.39;95574.47;5115862;28;960;-58
2023/08/22 06:29:56;;;;;;;;;;;;;;;25.20;73.18;95572.06;5097776;28;993;-55
2023/08/22 06:32:22;;;;;;;;;;;;;;;25.31;72.29;95573.16;5115026;28;1079;-57
2023/08/22 06:34:48;;;;;;;;;;;;;;;25.40;72.99;95570.84;5121584;27;2946;-57
2023/08/22 06:37:14;;;;;;;;;;;;;;;25.56;70.30;95572.81;5135998;27;1910;-57
2023/08/22 06:39:40;;;;;;;;;;;;;;;25.78;69.80;95572.94;5136252;27;976;-58
2023/08/22 06:42:06;;;;;;;;;;;;;;;25.93;70.49;95568.81;5135948;27;1040;-58
2023/08/22 06:44:32;;;;;;;;;;;;;;;26.00;70.49;95569.50;5135859;27;1337;-58
2023/08/22 06:46:58;;;;;;;;;;;;;;;26.15;69.72;95572.47;5136068;27;960;-56
2023/08/22 06:49:24;;;;;;;;;;;;;;;26.25;71.11;95569.91;5117101;27;2501;-57
2023/08/22 06:51:50;;;;;;;;;;;;;;;26.42;68.47;95569.88;5135064;27;2906;-57
2023/08/22 06:54:16;;;;;;;;;;;;;;;26.66;68.36;95573.28;5133992;27;2430;-56
2023/08/22 06:56:42;;;;;;;;;;;;;;;26.70;70.04;95567.31;5135519;27;1901;-57
2023/08/22 06:59:09;;;;;;;;;;;;;;;26.67;67.88;95569.47;5135847;27;1024;-57
2023/08/22 07:01:35;;;;;;;;;;;;;;;26.52;71.46;95569.19;5117113;27;1552;-56
2023/08/22 07:04:01;;;;;;;;;;;;;;;26.78;69.16;95567.69;5135751;27;968;-56
2023/08/22 07:06:27;;;;;;;;;;;;;;;26.95;68.63;95564.91;5135610;27;1048;-56
2023/08/22 07:08:53;;;;;;;;;;;;;;;26.91;66.32;95563.75;5135569;27;1055;-56
2023/08/22 07:11:19;;;;;;;;;;;;;;;27.01;67.21;95563.88;5135226;27;1032;-56
2023/08/22 07:13:45;;;;;;;;;;;;;;;27.22;68.17;95559.50;5135268;27;1020;-56
2023/08/22 07:16:11;;;;;;;;;;;;;;;27.36;66.93;95564.63;5135388;27;1969;-56
2023/08/22 07:18:37;;;;;;;;;;;;;;;27.44;66.93;95562.22;5135151;27;1032;-57
2023/08/22 07:21:04;;;;;;;;;;;;;;;27.32;65.81;95564.31;5135085;27;1861;-56
2023/08/22 07:23:30;;;;;;;;;;;;;;;27.55;67.54;95554.13;5121405;27;2480;-58
2023/08/22 07:25:56;;;;;;;;;;;;;;;27.76;66.39;95564.22;5114513;28;1039;-58
2023/08/22 07:28:22;;;;;;;;;;;;;;;27.89;64.41;95553.91;5114440;28;1015;-58
2023/08/22 07:30:48;;;;;;;;;;;;;;;28.02;65.56;95547.97;5114622;28;1033;-58
2023/08/22 07:33:14;;;;;;;;;;;;;;;28.22;64.07;95544.59;5096067;28;1628;-57
2023/08/22 07:35:41;;;;;;;;;;;;;;;28.27;65.18;95550.13;5114374;28;1083;-58
2023/08/22 07:38:07;;;;;;;;;;;;;;;28.54;64.35;95549.25;5114192;28;1972;-58
2023/08/22 07:40:36;;;;;;;;;;;;;;;28.79;63.14;95546.63;5114285;28;972;-58
2023/08/22 07:43:03;;;;;;;;;;;;;;;29.00;62.68;95546.75;5114485;28;999;-58
2023/08/22 07:45:29;;;;;;;;;;;;;;;29.15;62.85;95540.50;5113126;28;1092;-58
2023/08/22 07:47:55;;;;;;;;;;;;;;;29.19;63.29;95538.88;5114348;28;1035;-58
2023/08/22 07:50:21;;;;;;;;;;;;;;;29.28;61.38;95525.41;5114297;28;977;-58
2023/08/22 07:52:47;;;;;;;;;;;;;;;29.45;61.13;95523.25;5114092;28;1620;-58
2023/08/22 07:55:13;;;;;;;;;;;;;;;29.52;61.02;95531.25;5114033;28;1051;-58
2023/08/22 07:57:39;;;;;;;;;;;;;;;29.73;60.79;95530.25;5113929;28;1980;-58
2023/08/22 08:00:14;;;;;;;;;;;;;;;29.87;58.19;95526.94;5113989;28;954;-58
2023/08/22 08:02:40;;;;;;;;;;;;;;;29.88;56.90;95526.69;5114269;28;953;-58
2023/08/22 08:05:06;;;;;;;;;;;;;;;30.04;60.68;95523.94;5096185;28;1045;-58
2023/08/22 08:07:33;;;;;;;;;;;;;;;30.14;59.77;95523.91;5113923;28;1024;-58
2023/08/22 08:09:59;;;;;;;;;;;;;;;30.17;58.66;95518.69;5113955;28;1028;-58
2023/08/22 08:12:25;;;;;;;;;;;;;;;30.29;57.72;95518.38;5113797;28;1031;-58
2023/08/22 08:14:51;;;;;;;;;;;;;;;30.39;55.60;95520.34;5113864;28;1035;-57
2023/08/22 08:17:18;;;;;;;;;;;;;;;30.49;56.19;95523.09;5113936;28;1909;-57
2023/08/22 08:19:44;;;;;;;;;;;;;;;30.58;55.60;95514.25;5119546;28;1165;-58
2023/08/22 08:22:13;;;;;;;;;;;;;;;30.87;55.35;95518.03;5134554;28;1028;-56
2023/08/22 08:24:39;;;;;;;;;;;;;;;30.96;53.61;95525.75;5134386;28;941;-56
2023/08/22 08:27:05;;;;;;;;;;;;;;;31.08;54.11;95527.09;5134222;28;1028;-56
2023/08/22 08:29:31;;;;;;;;;;;;;;;31.17;53.19;95518.22;5134160;28;1036;-57
2023/08/22 08:31:57;;;;;;;;;;;;;;;31.30;56.06;95526.72;5134187;28;1074;-58
2023/08/22 08:34:24;;;;;;;;;;;;;;;31.14;55.03;95516.84;5134400;28;976;-57
2023/08/22 08:36:50;;;;;;;;;;;;;;;31.29;52.06;95527.00;5134379;28;1909;-57
2023/08/22 08:39:17;;;;;;;;;;;;;;;31.30;53.14;95512.91;5134400;28;968;-57
2023/08/22 08:41:50;;;;;;;;;;;;;;;31.35;52.44;95517.59;5134062;28;1075;-56
2023/08/22 08:44:16;;;;;;;;;;;;;;;31.38;51.65;95518.94;5134350;28;1029;-57
2023/08/22 08:46:42;;;;;;;;;;;;;;;31.54;51.87;95511.44;5133962;28;1107;-57
2023/08/22 08:49:09;;;;;;;;;;;;;;;31.78;50.48;95511.53;5134288;28;1009;-57
2023/08/22 08:51:35;;;;;;;;;;;;;;;31.82;48.95;95505.16;5134119;28;1242;-57
2023/08/22 08:54:01;;;;;;;;;;;;;;;31.74;46.90;95508.56;5132562;28;2545;-56
2023/08/22 08:56:27;;;;;;;;;;;;;;;31.82;47.26;95513.47;5135613;27;1918;-57
2023/08/22 08:58:53;;;;;;;;;;;;;;;31.77;46.37;95505.19;5136042;27;2536;-57
2023/08/22 09:01:21;;;;;;;;;;;;;;;31.92;46.68;95502.31;5137619;27;1052;-57
2023/08/22 09:03:47;;;;;;;;;;;;;;;32.00;43.90;95503.63;5137848;27;1037;-57
2023/08/22 09:06:13;;;;;;;;;;;;;;;32.08;45.15;95505.84;5137808;27;966;-57
2023/08/22 09:08:39;;;;;;;;;;;;;;;32.24;47.44;95487.16;5136360;27;2498;-57
2023/08/22 09:11:05;;;;;;;;;;;;;;;32.39;44.59;95488.94;5136093;27;2517;-57
2023/08/22 09:13:31;;;;;;;;;;;;;;;32.41;44.88;95485.91;5137333;27;1032;-58
2023/08/22 09:16:00;;;;;;;;;;;;;;;32.52;44.38;95492.13;5137772;27;956;-57
2023/08/22 09:18:27;;;;;;;;;;;;;;;32.53;42.87;95483.53;5137563;27;1947;-57
2023/08/22 09:21:04;;;;;;;;;;;;;;;32.40;43.12;95485.03;5137674;27;1142;-57
2023/08/22 09:23:31;;;;;;;;;;;;;;;32.28;41.96;95482.69;5124284;27;2854;-57
2023/08/22 09:25:57;;;;;;;;;;;;;;;32.49;43.60;95472.22;5129397;27;2469;-57
2023/08/22 09:28:23;;;;;;;;;;;;;;;32.75;42.08;95477.53;5137513;27;1044;-57
2023/08/22 09:30:50;;;;;;;;;;;;;;;32.94;40.97;95474.00;5137475;27;965;-57
2023/08/22 09:33:16;;;;;;;;;;;;;;;33.09;41.22;95476.56;5137337;27;1305;-57
2023/08/22 09:35:44;;;;;;;;;;;;;;;33.06;41.58;95468.84;5137230;27;1028;-57
2023/08/22 09:38:10;;;;;;;;;;;;;;;32.81;42.16;95462.50;5136927;27;1995;-57
2023/08/22 09:40:50;;;;;;;;;;;;;;;32.80;41.30;95462.78;5137357;27;1008;-57
2023/08/22 09:43:17;;;;;;;;;;;;;;;33.05;41.88;95461.66;5136805;27;1044;-57
2023/08/22 09:45:44;;;;;;;;;;;;;;;33.11;39.88;95471.59;5136859;27;1084;-56
2023/08/22 09:48:18;;;;;;;;;;;;;;;32.92;40.60;95462.41;5136809;27;969;-57
2023/08/22 09:50:44;;;;;;;;;;;;;;;32.91;42.23;95460.72;5136678;27;1103;-57
2023/08/22 09:53:11;;;;;;;;;;;;;;;32.90;40.45;95459.06;5136679;27;1879;-57
2023/08/22 09:55:37;;;;;;;;;;;;;;;32.95;40.22;95459.84;5135682;27;2889;-57
2023/08/22 09:58:04;;;;;;;;;;;;;;;33.16;41.36;95446.59;5136533;27;1910;-57
2023/08/22 10:00:31;;;;;;;;;;;;;;;33.29;39.19;95460.81;5135437;27;2609;-57
2023/08/22 10:03:00;;;;;;;;;;;;;;;33.08;40.15;95455.53;5136556;27;1024;-57
2023/08/22 10:05:26;;;;;;;;;;;;;;;33.10;39.74;95436.66;5136413;27;1020;-57
2023/08/22 10:07:52;;;;;;;;;;;;;;;33.36;38.55;95450.19;5135755;27;1031;-57
2023/08/22 10:10:18;;;;;;;;;;;;;;;33.48;37.96;95446.97;5118065;27;1015;-57
2023/08/22 10:12:45;;;;;;;;;;;;;;;33.52;38.71;95443.28;5136631;27;1079;-57
2023/08/22 10:15:14;;;;;;;;;;;;;;;33.58;38.95;95441.25;5136357;27;988;-57
2023/08/22 10:17:40;;;;;;;;;;;;;;;33.53;39.79;95436.63;5135893;27;2235;-57
2023/08/22 10:20:07;;;;;;;;;;;;;;;33.49;37.85;95435.59;5124686;27;2902;-57
2023/08/22 10:22:33;;;;;;;;;;;;;;;33.45;37.35;95440.09;5136455;27;1036;-57
2023/08/22 10:25:04;;;;;;;;;;;;;;;33.32;37.08;95438.88;5136131;27;1098;-57
2023/08/22 10:27:30;;;;;;;;;;;;;;;33.48;37.19;95431.16;5136295;27;1049;-57
2023/08/22 10:30:15;;;;;;;;;;;;;;;33.70;37.63;95427.00;5136474;27;1009;-57
2023/08/22 10:32:41;;;;;;;;;;;;;;;33.79;37.17;95436.28;5136010;27;1040;-57
2023/08/22 10:35:12;;;;;;;;;;;;;;;33.67;37.72;95431.19;5136003;27;1172;-57
2023/08/22 10:37:46;;;;;;;;;;;;;;;33.60;38.51;95427.97;5134912;27;2431;-57
2023/08/22 10:40:19;;;;;;;;;;;;;;;33.54;39.41;95424.44;5135422;27;2948;-57
2023/08/22 10:42:49;;;;;;;;;;;;;;;33.55;39.56;95423.31;5135197;27;2830;-57
2023/08/22 10:45:17;;;;;;;;;;;;;;;33.61;38.41;95429.59;5117320;27;1132;-57
2023/08/22 10:47:47;;;;;;;;;;;;;;;33.69;37.01;95428.09;5117849;27;971;-57
2023/08/22 10:50:13;;;;;;;;;;;;;;;33.56;38.33;95430.50;5135915;27;970;-57
2023/08/22 10:52:39;;;;;;;;;;;;;;;33.17;37.30;95431.63;5135664;27;1080;-57
2023/08/22 10:55:08;;;;;;;;;;;;;;;32.73;40.45;95418.88;5135565;27;1118;-56
2023/08/22 10:57:38;;;;;;;;;;;;;;;32.32;39.03;95422.06;5134254;27;2911;-57
2023/08/22 11:00:12;;;;;;;;;;;;;;;32.14;39.42;95425.56;5135800;27;1002;-57
2023/08/22 11:02:39;;;;;;;;;;;;;;;31.98;41.48;95411.84;5135732;27;977;-57
2023/08/22 11:05:12;;;;;;;;;;;;;;;32.05;40.70;95414.31;5134356;27;3056;-57
2023/08/22 11:07:42;;;;;;;;;;;;;;;32.54;38.51;95427.09;5135475;27;1015;-57
2023/08/22 11:10:11;;;;;;;;;;;;;;;33.05;39.14;95411.81;5135398;27;1045;-57
2023/08/22 11:12:38;;;;;;;;;;;;;;;33.25;39.02;95422.63;5135487;27;1051;-57
2023/08/22 11:15:04;;;;;;;;;;;;;;;33.29;38.73;95414.53;5135201;27;1083;-57
2023/08/22 11:17:30;;;;;;;;;;;;;;;33.46;38.15;95414.81;5135246;27;1914;-57
2023/08/22 11:19:59;;;;;;;;;;;;;;;33.63;35.49;95417.09;5135281;27;1157;-57
2023/08/22 11:22:25;;;;;;;;;;;;;;;33.41;38.78;95409.38;5135314;27;1052;-57
2023/08/22 11:24:52;;;;;;;;;;;;;;;33.00;39.42;95406.34;5134946;27;1568;-57
2023/08/22 11:27:18;;;;;;;;;;;;;;;32.73;36.29;95415.28;5115786;27;2938;-57
2023/08/22 11:29:49;;;;;;;;;;;;;;;32.62;38.29;95404.31;5116608;27;1259;-57
2023/08/22 11:32:20;;;;;;;;;;;;;;;32.91;36.68;95403.41;5134942;27;961;-57
2023/08/22 11:34:46;;;;;;;;;;;;;;;33.18;38.82;95400.03;5135017;27;965;-57
2023/08/22 11:37:12;;;;;;;;;;;;;;;33.34;37.96;95397.03;5134750;27;1914;-57
2023/08/22 11:39:38;;;;;;;;;;;;;;;33.49;38.02;95388.47;5132969;27;2934;-57
2023/08/22 11:42:04;;;;;;;;;;;;;;;33.52;37.66;95390.63;5135052;27;1068;-57
2023/08/22 11:44:30;;;;;;;;;;;;;;;33.64;38.04;95391.03;5134530;27;1091;-58
2023/08/22 11:46:58;;;;;;;;;;;;;;;33.60;37.18;95386.38;5133611;27;2817;-57
2023/08/22 11:49:24;;;;;;;;;;;;;;;33.53;36.31;95383.97;5122815;27;2587;-57
2023/08/22 11:51:54;;;;;;;;;;;;;;;33.37;37.96;95374.25;5114113;28;1092;-56
2023/08/22 11:54:24;;;;;;;;;;;;;;;33.31;36.60;95373.50;5114227;28;976;-57
2023/08/22 11:56:50;;;;;;;;;;;;;;;33.40;35.16;95374.47;5114247;28;1909;-57
2023/08/22 11:59:16;;;;;;;;;;;;;;;33.39;34.75;95367.28;5113859;28;1094;-57
2023/08/22 12:01:42;;;;;;;;;;;;;;;33.50;36.17;95361.56;5116438;27;2894;-57
2023/08/22 12:04:08;;;;;;;;;;;;;;;33.76;35.48;95373.09;5113884;28;1076;-57
2023/08/22 12:06:34;;;;;;;;;;;;;;;33.97;34.81;95368.84;5113812;28;1053;-57
2023/08/22 12:09:00;;;;;;;;;;;;;;;34.02;36.98;95360.44;5113810;28;1080;-56
2023/08/22 12:11:27;;;;;;;;;;;;;;;34.08;34.89;95354.78;5113674;28;1635;-57
2023/08/22 12:13:53;;;;;;;;;;;;;;;33.93;36.98;95359.47;5114098;28;945;-57
2023/08/22 12:16:19;;;;;;;;;;;;;;;33.83;35.96;95348.59;5113567;28;1929;-57
2023/08/22 12:18:45;;;;;;;;;;;;;;;33.69;35.22;95358.81;5113721;28;1029;-57
2023/08/22 12:21:11;;;;;;;;;;;;;;;33.56;36.41;95358.44;5131418;28;1237;-57
2023/08/22 12:23:37;;;;;;;;;;;;;;;33.28;35.78;95359.41;5134222;28;1032;-58
2023/08/22 12:26:03;;;;;;;;;;;;;;;33.10;37.21;95361.88;5134188;28;1008;-58
2023/08/22 12:28:29;;;;;;;;;;;;;;;32.92;37.48;95357.16;5133037;28;2485;-58
2023/08/22 12:30:55;;;;;;;;;;;;;;;32.87;36.07;95355.28;5135391;27;967;-57
2023/08/22 12:33:21;;;;;;;;;;;;;;;32.93;35.68;95359.63;5137165;27;2861;-56
2023/08/22 12:35:47;;;;;;;;;;;;;;;32.99;35.49;95352.06;5138355;27;1052;-57
2023/08/22 12:38:13;;;;;;;;;;;;;;;32.99;35.74;95352.91;5138086;27;1930;-57
2023/08/22 12:40:39;;;;;;;;;;;;;;;32.93;35.13;95353.25;5138193;27;1024;-57
2023/08/22 12:43:05;;;;;;;;;;;;;;;32.84;34.05;95347.56;5115116;28;2516;-56
2023/08/22 12:45:31;;;;;;;;;;;;;;;32.90;33.98;95349.16;5117646;27;2481;-56
2023/08/22 12:47:57;;;;;;;;;;;;;;;32.96;34.77;95358.22;5118124;27;2585;-56
2023/08/22 12:50:26;;;;;;;;;;;;;;;33.18;35.44;95344.63;5117358;28;975;-56
2023/08/22 12:52:52;;;;;;;;;;;;;;;33.39;34.14;95349.81;5117414;28;1028;-55
2023/08/22 12:55:20;;;;;;;;;;;;;;;33.56;34.44;95344.56;5124322;27;2779;-56
2023/08/22 12:57:46;;;;;;;;;;;;;;;33.70;35.42;95335.50;5137812;27;1917;-57